Time;durP1;ratioP1;P1;durP2;ratioP2;P2;SDS_P1;SDS_P2;PMS_P1;PMS_P2;Temp;Humidity;BMP_temperature;BMP_pressure;BME280_temperature;BME280_humidity;BME280_pressure;Samples;Min_cycle;Max_cycle;Signal;HPM_P1;HPM_P2
2023/06/28 00:02:41;;;;;;;4.28;1.38;;;15.70;99.90;;;;;;12445737;28;20050;-84
2023/06/28 00:08:42;;;;;;;7.50;1.40;;;15.50;99.90;;;;;;12416932;28;20050;-84
2023/06/28 00:14:44;;;;;;;4.32;1.55;;;15.50;99.90;;;;;;12433553;28;20038;-84
2023/06/28 00:20:47;;;;;;;8.07;1.60;;;15.40;99.90;;;;;;12429102;28;20114;-84
2023/06/28 00:26:48;;;;;;;8.00;1.77;;;15.30;99.90;;;;;;12420890;28;20609;-84
2023/06/28 00:32:51;;;;;;;5.40;1.58;;;15.40;99.90;;;;;;12430540;28;20060;-84
2023/06/28 00:38:53;;;;;;;9.18;1.85;;;15.30;99.90;;;;;;12428728;28;20136;-84
2023/06/28 00:44:55;;;;;;;5.10;1.42;;;15.40;99.90;;;;;;12422123;28;20062;-84
2023/06/28 00:50:57;;;;;;;4.68;1.80;;;15.50;99.90;;;;;;12430483;28;20136;-84
2023/06/28 00:57:00;;;;;;;4.28;1.77;;;15.40;99.90;;;;;;12419405;28;20045;-84
2023/06/28 01:03:02;;;;;;;7.40;1.80;;;15.40;99.90;;;;;;12435715;28;20053;-84
2023/06/28 01:09:07;;;;;;;6.43;2.10;;;15.10;99.90;;;;;;12422818;28;20406;-83
2023/06/28 01:15:10;;;;;;;12.18;1.95;;;15.20;99.90;;;;;;12451283;28;20755;-83
2023/06/28 01:21:14;;;;;;;5.88;1.63;;;15.20;99.90;;;;;;12444173;28;20506;-83
2023/06/28 01:27:16;;;;;;;6.70;1.85;;;15.20;99.90;;;;;;12430199;28;20537;-83
2023/06/28 01:33:19;;;;;;;7.45;1.60;;;15.20;99.90;;;;;;12433313;28;20088;-83
2023/06/28 01:39:22;;;;;;;7.07;2.10;;;15.20;99.90;;;;;;12430064;28;20486;-83
2023/06/28 01:45:24;;;;;;;8.15;2.03;;;15.20;99.90;;;;;;12446723;28;20045;-84
2023/06/28 01:51:25;;;;;;;4.05;1.75;;;15.20;99.90;;;;;;12437100;28;20053;-83
2023/06/28 01:57:27;;;;;;;7.38;2.03;;;15.10;99.90;;;;;;12448898;28;20449;-83
2023/06/28 02:03:29;;;;;;;3.95;1.80;;;15.10;99.90;;;;;;12430723;28;21583;-83
2023/06/28 02:09:31;;;;;;;7.53;1.75;;;15.00;99.90;;;;;;12443667;28;20132;-83
2023/06/28 02:15:34;;;;;;;4.57;1.85;;;14.90;99.90;;;;;;12446675;28;20534;-83
2023/06/28 02:21:36;;;;;;;4.65;2.22;;;15.00;99.90;;;;;;12442459;28;20042;-83
2023/06/28 02:27:40;;;;;;;5.68;2.13;;;14.90;99.90;;;;;;12433429;28;20088;-83
2023/06/28 02:33:42;;;;;;;4.82;2.05;;;14.90;99.90;;;;;;12433983;28;20046;-84
2023/06/28 02:39:44;;;;;;;6.03;2.03;;;14.90;99.90;;;;;;12420822;28;20049;-83
2023/06/28 02:45:48;;;;;;;9.15;2.22;;;14.80;99.90;;;;;;12428517;28;20061;-84
2023/06/28 02:51:50;;;;;;;4.35;1.83;;;14.80;99.90;;;;;;12430903;28;20050;-83
2023/06/28 02:57:53;;;;;;;8.77;2.17;;;14.70;99.90;;;;;;12429681;28;20049;-84
2023/06/28 03:03:55;;;;;;;9.90;2.63;;;14.70;99.90;;;;;;12438723;28;20045;-85
2023/06/28 03:09:57;;;;;;;4.70;2.20;;;14.70;99.90;;;;;;12426354;28;20046;-83
2023/06/28 03:15:59;;;;;;;5.85;2.20;;;14.70;99.90;;;;;;12412406;28;20053;-84
2023/06/28 03:22:01;;;;;;;4.65;2.00;;;14.60;99.90;;;;;;12439777;28;20514;-84
2023/06/28 03:28:03;;;;;;;5.95;2.30;;;14.70;99.90;;;;;;12437399;28;20406;-84
2023/06/28 03:34:05;;;;;;;7.35;2.17;;;14.70;99.90;;;;;;12403592;28;20494;-84
2023/06/28 03:40:08;;;;;;;5.40;2.45;;;14.70;99.90;;;;;;12432097;28;20424;-84
2023/06/28 03:46:10;;;;;;;8.60;2.60;;;14.70;99.90;;;;;;12418355;28;20081;-83
2023/06/28 03:52:12;;;;;;;3.95;2.00;;;14.80;99.90;;;;;;12422798;28;20073;-83
2023/06/28 03:58:14;;;;;;;5.80;2.30;;;14.90;99.90;;;;;;12436576;28;20061;-84
2023/06/28 04:04:16;;;;;;;6.25;2.33;;;15.00;99.90;;;;;;12407166;28;20410;-85
2023/06/28 04:10:19;;;;;;;7.63;2.65;;;15.10;99.90;;;;;;12405187;28;20057;-84
2023/06/28 04:16:20;;;;;;;9.23;2.50;;;15.10;99.90;;;;;;12433588;28;20085;-84
2023/06/28 04:22:23;;;;;;;6.53;2.58;;;15.60;99.90;;;;;;12414298;28;20046;-84
2023/06/28 04:28:25;;;;;;;8.60;2.60;;;16.00;99.90;;;;;;12438437;28;20188;-84
2023/06/28 04:34:27;;;;;;;9.00;2.90;;;16.30;99.90;;;;;;12414434;28;20049;-84
2023/06/28 04:40:32;;;;;;;7.18;2.42;;;17.20;99.90;;;;;;12409782;28;20438;-85
2023/06/28 04:46:34;;;;;;;8.18;2.35;;;18.40;99.90;;;;;;12398559;28;20049;-84
2023/06/28 04:52:37;;;;;;;5.88;2.40;;;17.80;99.90;;;;;;12390115;28;20042;-84
2023/06/28 04:58:39;;;;;;;7.60;2.90;;;17.50;99.90;;;;;;12439377;28;20096;-83
2023/06/28 05:04:41;;;;;;;5.18;2.70;;;16.90;99.90;;;;;;12412041;28;20049;-84
2023/06/28 05:10:43;;;;;;;6.38;3.30;;;16.60;99.90;;;;;;12429338;28;20140;-84
2023/06/28 05:16:45;;;;;;;7.55;2.80;;;16.30;99.90;;;;;;12450560;28;20494;-84
2023/06/28 05:22:50;;;;;;;8.20;3.47;;;16.10;99.90;;;;;;12432709;28;20053;-84
2023/06/28 05:28:52;;;;;;;10.25;3.40;;;16.10;99.90;;;;;;12433476;28;20085;-84
2023/06/28 05:34:54;;;;;;;10.05;3.50;;;15.90;99.90;;;;;;12435895;28;20115;-84
2023/06/28 05:41:11;;;;;;;11.77;3.92;;;16.00;99.90;;;;;;12433286;28;20050;-85
2023/06/28 05:47:13;;;;;;;8.23;3.17;;;16.00;99.90;;;;;;12439347;28;20057;-84
2023/06/28 05:53:15;;;;;;;8.43;3.13;;;16.10;99.90;;;;;;12422215;28;20683;-84
2023/06/28 05:59:17;;;;;;;10.57;2.92;;;16.50;99.90;;;;;;12448882;28;20057;-84
2023/06/28 06:05:19;;;;;;;7.28;2.80;;;16.70;99.90;;;;;;12429704;28;20046;-84
2023/06/28 06:11:24;;;;;;;9.65;2.80;;;16.60;99.90;;;;;;12441447;28;20779;-84
2023/06/28 06:17:26;;;;;;;8.60;2.70;;;16.40;99.90;;;;;;12409584;28;20058;-85
2023/06/28 06:23:28;;;;;;;7.43;2.58;;;16.30;99.90;;;;;;12416180;28;20050;-84
2023/06/28 06:29:30;;;;;;;10.45;3.10;;;16.30;99.90;;;;;;12420383;28;20369;-84
2023/06/28 06:35:32;;;;;;;8.65;2.80;;;16.40;99.90;;;;;;12421219;28;20069;-84
2023/06/28 06:41:34;;;;;;;9.63;2.72;;;16.50;99.90;;;;;;12432126;28;20487;-84
2023/06/28 06:47:38;;;;;;;9.88;2.30;;;16.30;99.90;;;;;;12410410;28;20054;-84
2023/06/28 06:53:40;;;;;;;10.60;2.67;;;16.60;99.90;;;;;;12445465;28;20081;-85
2023/06/28 06:59:42;;;;;;;10.90;3.10;;;16.70;99.90;;;;;;12431084;28;21370;-84
2023/06/28 07:05:44;;;;;;;8.45;2.72;;;16.80;99.90;;;;;;12484661;28;20110;-85
2023/06/28 07:11:46;;;;;;;7.57;2.78;;;17.20;99.90;;;;;;12460602;28;20053;-84
2023/06/28 07:17:49;;;;;;;11.63;3.33;;;17.50;99.90;;;;;;12462151;28;20073;-86
2023/06/28 07:23:53;;;;;;;7.72;2.45;;;17.60;99.90;;;;;;12429745;28;20498;-84
2023/06/28 07:29:56;;;;;;;10.73;2.30;;;17.70;99.90;;;;;;12405186;28;20399;-84
2023/06/28 07:35:58;;;;;;;8.60;1.92;;;17.60;99.90;;;;;;12437373;28;20410;-84
2023/06/28 07:42:00;;;;;;;9.23;2.20;;;17.30;99.90;;;;;;12434985;28;20049;-84
2023/06/28 07:48:02;;;;;;;5.90;1.90;;;17.40;99.90;;;;;;12429193;28;20050;-84
2023/06/28 07:54:04;;;;;;;5.53;2.00;;;17.50;99.90;;;;;;12413409;28;20173;-84
2023/06/28 08:00:10;;;;;;;9.63;2.60;;;17.40;99.90;;;;;;12407506;28;20184;-82
2023/06/28 08:06:12;;;;;;;11.43;2.30;;;17.50;99.90;;;;;;12424406;28;20104;-84
2023/06/28 08:12:14;;;;;;;8.25;2.15;;;17.90;99.90;;;;;;12430819;28;20045;-83
2023/06/28 08:18:17;;;;;;;5.20;1.92;;;18.00;99.90;;;;;;12425551;28;20058;-83
2023/06/28 08:24:19;;;;;;;10.03;2.07;;;17.90;99.90;;;;;;12429859;28;20050;-83
2023/06/28 08:30:21;;;;;;;7.47;2.10;;;17.50;99.90;;;;;;12426269;28;20429;-85
2023/06/28 08:36:23;;;;;;;6.00;1.90;;;17.70;99.90;;;;;;12431512;28;20479;-83
2023/06/28 08:42:26;;;;;;;4.82;1.13;;;18.10;99.90;;;;;;12429714;28;20058;-83
2023/06/28 08:48:28;;;;;;;5.82;1.42;;;18.20;99.90;;;;;;12432174;28;20409;-85
2023/06/28 08:54:32;;;;;;;4.85;1.40;;;18.00;99.90;;;;;;12443323;28;20045;-84
2023/06/28 09:00:34;;;;;;;4.43;1.40;;;18.50;99.90;;;;;;12432929;28;20046;-85
2023/06/28 09:06:35;;;;;;;4.90;1.35;;;19.00;99.90;;;;;;12433797;28;20128;-85
2023/06/28 09:12:38;;;;;;;5.38;1.33;;;19.40;99.90;;;;;;12434263;28;20449;-85
2023/06/28 09:18:40;;;;;;;7.57;2.10;;;19.40;99.90;;;;;;12421755;28;20050;-83
2023/06/28 09:24:42;;;;;;;5.00;1.50;;;19.10;99.90;;;;;;12449347;28;20054;-84
2023/06/28 09:30:54;;;;;;;6.20;1.80;;;19.10;99.90;;;;;;12401768;28;20057;-84
2023/06/28 09:36:57;;;;;;;6.70;1.35;;;19.50;99.90;;;;;;12433266;28;20046;-83
2023/06/28 09:42:59;;;;;;;3.55;1.27;;;19.00;99.90;;;;;;12420777;28;20133;-83
2023/06/28 09:49:01;;;;;;;6.80;1.40;;;19.50;99.90;;;;;;12425211;28;20053;-84
2023/06/28 09:55:03;;;;;;;7.82;1.75;;;19.60;99.90;;;;;;12419288;28;20046;-83
2023/06/28 10:01:06;;;;;;;6.65;1.50;;;19.50;99.90;;;;;;12441312;28;20050;-83
2023/06/28 10:07:10;;;;;;;4.43;1.40;;;19.70;99.90;;;;;;12442297;28;20049;-83
2023/06/28 10:13:22;;;;;;;4.80;1.42;;;20.00;99.90;;;;;;12423076;28;20185;-85
2023/06/28 10:19:25;;;;;;;6.05;1.60;;;19.50;99.90;;;;;;12440884;28;20515;-84
2023/06/28 10:25:27;;;;;;;7.20;1.33;;;19.50;99.90;;;;;;12427113;28;20169;-84
2023/06/28 10:31:30;;;;;;;5.55;1.48;;;19.70;99.90;;;;;;12421045;28;20080;-85
2023/06/28 10:37:32;;;;;;;4.67;1.60;;;19.70;99.90;;;;;;12433314;28;20133;-84
2023/06/28 10:43:34;;;;;;;6.53;1.60;;;20.00;99.90;;;;;;12429545;28;20174;-86
2023/06/28 10:49:40;;;;;;;7.03;1.70;;;20.40;99.90;;;;;;12424689;28;20069;-84
2023/06/28 10:56:05;;;;;;;7.68;1.90;;;20.60;99.90;;;;;;12437879;28;20033;-83
2023/06/28 11:02:07;;;;;;;4.55;1.48;;;20.00;99.90;;;;;;12429769;28;20038;-84
2023/06/28 11:08:13;;;;;;;4.00;1.60;;;19.90;99.90;;;;;;12440354;28;20458;-85
2023/06/28 11:14:27;;;;;;;3.05;1.50;;;20.10;99.90;;;;;;12419836;28;20092;-83
2023/06/28 11:20:29;;;;;;;5.38;1.40;;;20.00;99.90;;;;;;12459538;28;20050;-84
2023/06/28 11:26:37;;;;;;;4.38;1.48;;;20.10;99.90;;;;;;12439385;28;20062;-83
2023/06/28 11:32:40;;;;;;;5.00;2.00;;;20.10;99.90;;;;;;12453342;28;20505;-85
2023/06/28 11:38:45;;;;;;;5.70;1.50;;;20.30;99.90;;;;;;12422062;28;20092;-85
2023/06/28 11:44:49;;;;;;;4.60;1.40;;;20.50;99.90;;;;;;12437798;28;20054;-85
2023/06/28 11:50:55;;;;;;;;;;;20.40;99.90;;;;;;12435123;28;20058;-83
2023/06/28 11:56:57;;;;;;;5.95;1.90;;;20.50;99.90;;;;;;12421820;28;19936;-84
2023/06/28 12:02:59;;;;;;;5.90;1.70;;;20.50;99.90;;;;;;12419814;28;20505;-85
2023/06/28 12:09:01;;;;;;;5.30;2.28;;;20.40;99.90;;;;;;12420129;28;20499;-85
2023/06/28 12:15:04;;;;;;;5.97;1.80;;;20.60;99.90;;;;;;12420938;28;20097;-85
2023/06/28 12:21:23;;;;;;;4.55;1.70;;;20.50;99.90;;;;;;12426360;28;20078;-84
2023/06/28 12:27:25;;;;;;;5.00;1.75;;;20.60;99.90;;;;;;12430283;28;20051;-83
2023/06/28 12:33:28;;;;;;;3.53;1.40;;;20.50;99.90;;;;;;12406933;28;20061;-84
2023/06/28 12:39:32;;;;;;;6.32;1.52;;;20.90;99.90;;;;;;12409154;28;20115;-84
2023/06/28 12:45:44;;;;;;;3.42;1.70;;;21.40;99.90;;;;;;12431806;28;20042;-85
2023/06/28 12:51:46;;;;;;;2.97;1.65;;;21.70;99.90;;;;;;12415643;28;20541;-85
2023/06/28 12:57:47;;;;;;;7.57;1.80;;;21.40;99.90;;;;;;12413029;28;20058;-84
2023/06/28 13:03:54;;;;;;;6.10;1.80;;;21.80;99.90;;;;;;12436504;28;20054;-84
2023/06/28 13:09:56;;;;;;;5.35;1.88;;;21.60;99.90;;;;;;12426152;28;20132;-85
2023/06/28 13:15:58;;;;;;;11.95;1.73;;;21.50;99.90;;;;;;12420760;28;20053;-83
2023/06/28 13:22:00;;;;;;;7.70;1.60;;;21.30;99.90;;;;;;12414001;28;20050;-85
2023/06/28 13:28:02;;;;;;;6.57;1.75;;;21.40;99.90;;;;;;12450545;28;20050;-85
2023/06/28 13:34:04;;;;;;;7.65;2.38;;;21.60;99.90;;;;;;12416296;28;20045;-84
2023/06/28 13:40:07;;;;;;;4.03;1.80;;;21.50;99.90;;;;;;12447774;28;20057;-84
2023/06/28 13:46:09;;;;;;;4.87;2.17;;;21.50;99.90;;;;;;12431958;28;20046;-84
2023/06/28 13:52:11;;;;;;;4.32;2.22;;;21.40;99.90;;;;;;12421815;28;20054;-84
2023/06/28 13:58:12;;;;;;;4.68;2.20;;;21.50;99.90;;;;;;12429094;28;20066;-85
2023/06/28 14:04:14;;;;;;;4.10;2.17;;;21.40;99.90;;;;;;12426170;28;20061;-84
2023/06/28 14:10:16;;;;;;;4.10;2.20;;;21.00;99.90;;;;;;12442580;28;20085;-84
2023/06/28 14:16:18;;;;;;;7.50;2.60;;;20.80;99.90;;;;;;12422553;28;20054;-83
2023/06/28 14:22:20;;;;;;;5.88;2.90;;;20.80;99.90;;;;;;12422810;28;20069;-84
2023/06/28 14:28:23;;;;;;;6.88;3.15;;;20.70;99.90;;;;;;12415884;28;20050;-83
2023/06/28 14:34:25;;;;;;;5.43;2.78;;;20.60;99.90;;;;;;12431080;28;20053;-83
2023/06/28 14:40:26;;;;;;;6.78;3.10;;;20.60;99.90;;;;;;12426498;28;20046;-84
2023/06/28 14:46:28;;;;;;;7.20;3.80;;;20.70;99.90;;;;;;12418490;28;20057;-84
2023/06/28 14:52:30;;;;;;;6.00;3.22;;;20.80;99.90;;;;;;12421579;28;20136;-83
2023/06/28 14:58:32;;;;;;;7.18;3.28;;;21.20;99.90;;;;;;12413154;28;20043;-84
2023/06/28 15:04:34;;;;;;;6.72;3.70;;;21.40;99.90;;;;;;12414877;28;20057;-84
2023/06/28 15:10:37;;;;;;;6.18;2.67;;;21.50;99.90;;;;;;12439123;28;20100;-85
2023/06/28 15:16:38;;;;;;;5.53;2.80;;;21.60;99.90;;;;;;12411520;28;20050;-84
2023/06/28 15:22:40;;;;;;;6.65;2.90;;;21.60;99.90;;;;;;12419796;28;20050;-83
2023/06/28 15:28:42;;;;;;;9.45;3.40;;;21.60;99.90;;;;;;12417211;28;20073;-86
2023/06/28 15:34:44;;;;;;;5.80;2.72;;;21.50;99.90;;;;;;12443765;28;20045;-85
2023/06/28 15:40:49;;;;;;;4.95;2.50;;;21.50;99.90;;;;;;12413780;28;20132;-84
2023/06/28 15:46:51;;;;;;;9.07;2.22;;;21.20;99.90;;;;;;12416459;28;20054;-85
2023/06/28 15:52:53;;;;;;;3.35;1.90;;;21.10;99.90;;;;;;12434585;28;20045;-85
2023/06/28 15:58:55;;;;;;;4.38;1.70;;;21.10;99.90;;;;;;12438147;28;20053;-84
2023/06/28 16:04:57;;;;;;;3.40;1.42;;;21.40;99.90;;;;;;12404782;28;20514;-85
2023/06/28 16:11:00;;;;;;;3.35;1.42;;;22.20;99.90;;;;;;12411938;28;20062;-85
2023/06/28 16:17:03;;;;;;;4.60;1.85;;;22.10;99.90;;;;;;12436052;28;20042;-84
2023/06/28 16:23:05;;;;;;;5.72;1.60;;;21.50;99.90;;;;;;12414979;28;20050;-84
2023/06/28 16:29:07;;;;;;;2.97;1.55;;;21.10;99.90;;;;;;12405169;28;20058;-84
2023/06/28 16:35:09;;;;;;;3.92;1.60;;;20.80;99.90;;;;;;12428335;28;20141;-84
2023/06/28 16:41:11;;;;;;;2.97;1.40;;;20.90;99.90;;;;;;12429543;28;20053;-84
2023/06/28 16:47:13;;;;;;;4.03;1.73;;;20.90;99.90;;;;;;12421571;28;20046;-84
2023/06/28 16:53:15;;;;;;;3.22;1.88;;;20.80;99.90;;;;;;12419419;28;20152;-84
2023/06/28 16:59:17;;;;;;;6.93;2.05;;;20.60;99.90;;;;;;12424976;28;20259;-85
2023/06/28 17:05:19;;;;;;;4.65;2.10;;;20.40;99.90;;;;;;12431615;28;20052;-85
2023/06/28 17:11:24;;;;;;;5.05;2.17;;;20.40;99.90;;;;;;12417460;28;20042;-85
2023/06/28 17:17:26;;;;;;;;;;;20.30;99.90;;;;;;12438438;28;20247;-85
2023/06/28 17:23:28;;;;;;;4.78;2.78;;;20.30;99.90;;;;;;12425756;28;19922;-84
2023/06/28 17:29:30;;;;;;;5.63;3.65;;;20.30;99.90;;;;;;12427947;28;20049;-85
2023/06/28 17:35:34;;;;;;;8.35;4.05;;;20.20;99.90;;;;;;12431672;28;20427;-84
2023/06/28 17:41:36;;;;;;;9.38;3.90;;;20.20;99.90;;;;;;12431058;28;20050;-85
2023/06/28 17:47:38;;;;;;;9.77;4.85;;;20.20;99.90;;;;;;12431282;28;20522;-85
2023/06/28 17:53:44;;;;;;;8.05;4.82;;;20.20;99.90;;;;;;12413967;28;20082;-85
2023/06/28 17:59:46;;;;;;;9.07;5.60;;;20.10;99.90;;;;;;12416963;28;20054;-84
2023/06/28 18:05:47;;;;;;;8.30;6.00;;;19.90;99.90;;;;;;12425920;28;20046;-85
2023/06/28 18:11:51;;;;;;;11.80;7.07;;;19.90;99.90;;;;;;12435618;28;20511;-84
2023/06/28 18:17:53;;;;;;;15.23;6.97;;;19.80;99.90;;;;;;12427990;28;20447;-84
2023/06/28 18:23:59;;;;;;;8.07;6.70;;;19.70;99.90;;;;;;12412975;28;20052;-85
2023/06/28 18:30:02;;;;;;;10.48;7.88;;;19.70;99.90;;;;;;12421461;28;20418;-85
2023/06/28 18:36:04;;;;;;;10.30;6.97;;;19.60;99.90;;;;;;12438035;28;20168;-85
2023/06/28 18:42:07;;;;;;;9.65;7.88;;;19.70;99.90;;;;;;12426431;28;20054;-85
2023/06/28 18:48:09;;;;;;;11.20;7.05;;;19.60;99.90;;;;;;12412279;28;20099;-85
2023/06/28 18:54:14;;;;;;;10.50;7.53;;;19.50;99.90;;;;;;12432183;28;20042;-85
2023/06/28 19:00:21;;;;;;;9.25;6.72;;;19.50;99.90;;;;;;12426268;28;20141;-85
2023/06/28 19:06:23;;;;;;;9.23;6.22;;;19.40;99.90;;;;;;12428760;28;20080;-85
2023/06/28 19:12:25;;;;;;;8.02;6.03;;;19.50;99.90;;;;;;12435851;28;20050;-85
2023/06/28 19:18:27;;;;;;;11.50;6.43;;;19.50;99.90;;;;;;12491079;28;20093;-85
2023/06/28 19:24:29;;;;;;;9.07;5.75;;;19.40;99.90;;;;;;12477740;28;20046;-86
2023/06/28 19:30:34;;;;;;;8.40;5.47;;;19.60;99.90;;;;;;12424157;28;20152;-85
2023/06/28 19:36:36;;;;;;;6.93;6.03;;;19.50;99.90;;;;;;12426515;28;20069;-85
2023/06/28 19:42:38;;;;;;;9.25;6.28;;;19.50;99.90;;;;;;12430692;28;20042;-85
2023/06/28 19:48:41;;;;;;;9.93;6.18;;;19.50;99.90;;;;;;12426943;28;20053;-85
2023/06/28 19:54:43;;;;;;;8.68;6.90;;;19.40;99.90;;;;;;12432251;28;20046;-85
2023/06/28 20:00:45;;;;;;;8.93;6.85;;;19.40;99.90;;;;;;12409187;28;20542;-85
2023/06/28 20:06:47;;;;;;;11.55;6.97;;;19.20;99.90;;;;;;12412309;28;20510;-85
2023/06/28 20:12:48;;;;;;;9.20;7.40;;;19.20;99.90;;;;;;12410708;28;20041;-85
2023/06/28 20:18:50;;;;;;;13.75;7.93;;;19.20;99.90;;;;;;12397441;28;20057;-86
2023/06/28 20:24:52;;;;;;;11.75;8.75;;;19.10;99.90;;;;;;12427264;28;20041;-85
2023/06/28 20:30:55;;;;;;;10.80;7.85;;;19.10;99.90;;;;;;12432319;28;20049;-86
2023/06/28 20:36:57;;;;;;;13.43;8.90;;;19.10;99.90;;;;;;12431480;28;20050;-85
2023/06/28 20:43:00;;;;;;;14.23;9.13;;;19.10;99.90;;;;;;12432218;28;20050;-85
2023/06/28 20:49:04;;;;;;;;;;;19.00;99.90;;;;;;12418487;28;20085;-85
2023/06/28 20:55:06;;;;;;;12.18;8.57;;;19.00;99.90;;;;;;12437581;28;19928;-86
2023/06/28 21:01:08;;;;;;;12.48;9.35;;;19.00;99.90;;;;;;12414853;28;20415;-85
2023/06/28 21:07:10;;;;;;;11.55;8.88;;;19.10;99.90;;;;;;12417271;28;20094;-85
2023/06/28 21:13:12;;;;;;;12.48;9.50;;;19.00;99.90;;;;;;12434076;28;20089;-85
2023/06/28 21:19:14;;;;;;;13.00;9.90;;;19.00;99.90;;;;;;12428304;28;20526;-85
2023/06/28 21:25:16;;;;;;;10.55;9.07;;;19.00;99.90;;;;;;12423224;28;20045;-85
2023/06/28 21:31:18;;;;;;;11.35;8.30;;;19.00;99.90;;;;;;12447154;28;20069;-85
2023/06/28 21:37:21;;;;;;;11.48;9.38;;;19.00;99.90;;;;;;12425122;28;20509;-85
2023/06/28 21:43:24;;;;;;;13.57;8.48;;;19.00;99.90;;;;;;12434175;28;20054;-85
2023/06/28 21:49:26;;;;;;;15.15;9.10;;;19.00;99.90;;;;;;12425288;28;20050;-85
2023/06/28 21:55:28;;;;;;;12.23;8.32;;;19.00;99.90;;;;;;12418742;28;20498;-85
2023/06/28 22:01:30;;;;;;;12.70;8.07;;;19.00;99.90;;;;;;12443533;28;20052;-85
2023/06/28 22:07:32;;;;;;;10.90;7.93;;;18.90;99.90;;;;;;12417937;28;20050;-85
2023/06/28 22:13:41;;;;;;;12.45;8.48;;;18.90;99.90;;;;;;12434954;28;20351;-85
2023/06/28 22:19:44;;;;;;;10.18;7.88;;;18.90;99.90;;;;;;12417500;28;20133;-86
2023/06/28 22:25:45;;;;;;;10.35;7.22;;;18.90;99.90;;;;;;12424852;28;20046;-85
2023/06/28 22:31:47;;;;;;;10.80;7.10;;;19.00;99.90;;;;;;12420943;28;20039;-86
2023/06/28 22:37:50;;;;;;;12.88;7.20;;;18.90;99.90;;;;;;12441313;28;20058;-85
2023/06/28 22:43:52;;;;;;;12.35;7.28;;;18.90;99.90;;;;;;12423400;28;20578;-85
2023/06/28 22:49:54;;;;;;;9.20;6.97;;;18.90;99.90;;;;;;12423259;28;20049;-85
2023/06/28 22:55:56;;;;;;;13.18;7.13;;;18.90;99.90;;;;;;12411956;28;20056;-85
2023/06/28 23:01:59;;;;;;;18.02;7.53;;;18.90;99.90;;;;;;12401869;28;20057;-85
2023/06/28 23:08:01;;;;;;;9.45;7.15;;;18.80;99.90;;;;;;12429281;28;20065;-85
2023/06/28 23:14:03;;;;;;;11.25;7.47;;;18.80;99.90;;;;;;12424215;28;20046;-86
2023/06/28 23:20:05;;;;;;;12.10;7.07;;;18.80;99.90;;;;;;12435467;28;20058;-84
2023/06/28 23:26:07;;;;;;;11.60;7.57;;;18.80;99.90;;;;;;12445589;28;20192;-85
2023/06/28 23:32:09;;;;;;;13.55;7.13;;;18.80;99.90;;;;;;12422981;28;20514;-86
2023/06/28 23:38:12;;;;;;;11.90;7.35;;;18.70;99.90;;;;;;12434433;28;20062;-86
2023/06/28 23:44:14;;;;;;;12.47;8.87;;;18.30;99.90;;;;;;12421038;28;20095;-86
2023/06/28 23:50:16;;;;;;;12.95;7.80;;;18.10;99.90;;;;;;12416069;28;20281;-85
2023/06/28 23:56:20;;;;;;;13.73;8.40;;;18.20;99.90;;;;;;12424179;28;20479;-86
